createdAt,value
2023-03-04T00:03:52.978Z,27.90
2023-03-04T00:08:54.678Z,25.90
2023-03-04T00:13:57.172Z,25.35
2023-03-04T00:18:58.943Z,25.83
2023-03-04T00:24:00.757Z,25.17
2023-03-04T00:29:02.390Z,23.92
2023-03-04T00:34:04.151Z,24.67
2023-03-04T00:39:06.035Z,23.83
2023-03-04T00:44:07.768Z,25.60
2023-03-04T00:49:09.392Z,24.45
2023-03-04T00:54:11.088Z,24.95
2023-03-04T00:59:12.804Z,25.35
2023-03-04T01:04:14.454Z,24.30
2023-03-04T01:09:16.107Z,24.10
2023-03-04T01:14:17.799Z,22.40
2023-03-04T01:19:19.880Z,22.73
2023-03-04T01:24:21.526Z,22.08
2023-03-04T01:29:23.304Z,20.58
2023-03-04T01:34:25.020Z,20.95
2023-03-04T01:39:26.718Z,20.95
2023-03-04T01:44:28.567Z,20.75
2023-03-04T01:49:30.886Z,19.83
2023-03-04T01:54:32.607Z,20.33
2023-03-04T01:59:34.284Z,21.40
2023-03-04T02:04:36.013Z,20.52
2023-03-04T02:09:37.732Z,19.30
2023-03-04T02:14:39.624Z,18.27
2023-03-04T02:19:49.789Z,18.85
2023-03-04T02:25:03.444Z,20.60
2023-03-04T02:30:06.249Z,20.30
2023-03-04T02:35:14.590Z,19.08
2023-03-04T02:40:24.854Z,19.38
2023-03-04T02:45:40.666Z,18.70
2023-03-04T02:50:47.372Z,18.35
2023-03-04T02:55:49.464Z,20.80
2023-03-04T03:00:51.999Z,19.67
2023-03-04T03:05:54.320Z,21.20
2023-03-04T03:10:56.259Z,18.23
2023-03-04T03:15:59.166Z,19.17
2023-03-04T03:21:01.007Z,19.15
2023-03-04T03:26:03.880Z,18.98
2023-03-04T03:31:06.628Z,19.70
2023-03-04T03:36:09.022Z,19.55
2023-03-04T03:41:10.866Z,19.17
2023-03-04T03:46:12.668Z,20.35
2023-03-04T03:51:14.335Z,19.95
2023-03-04T03:56:16.005Z,19.55
2023-03-04T04:01:17.653Z,18.38
2023-03-04T04:06:19.438Z,18.65
2023-03-04T04:11:21.504Z,17.17
2023-03-04T04:16:23.254Z,17.38
2023-03-04T04:21:24.957Z,17.50
2023-03-04T04:26:26.674Z,18.05
2023-03-04T04:31:28.319Z,17.33
2023-03-04T04:36:30.047Z,17.35
2023-03-04T04:41:36.800Z,18.05
2023-03-04T04:46:39.491Z,17.10
2023-03-04T04:51:41.239Z,18.02
2023-03-04T04:56:43.134Z,17.48
2023-03-04T05:01:44.890Z,17.95
2023-03-04T05:06:46.584Z,16.83
2023-03-04T05:11:48.373Z,16.95
2023-03-04T05:16:50.298Z,15.57
2023-03-04T05:21:51.949Z,15.57
2023-03-04T05:26:53.755Z,16.92
2023-03-04T05:31:55.606Z,17.30
2023-03-04T05:36:57.332Z,16.33
2023-03-04T05:41:58.999Z,16.58
2023-03-04T05:47:00.711Z,16.45
2023-03-04T05:52:02.378Z,16.67
2023-03-04T05:57:04.142Z,16.88
2023-03-04T06:02:05.779Z,15.55
2023-03-04T06:07:07.459Z,16.40
2023-03-04T06:12:09.098Z,16.58
2023-03-04T06:17:10.759Z,15.95
2023-03-04T06:22:12.645Z,15.43
2023-03-04T06:27:14.350Z,16.20
2023-03-04T06:32:16.019Z,17.85
2023-03-04T06:37:17.970Z,16.85
2023-03-04T06:42:19.639Z,15.35
2023-03-04T06:47:21.485Z,15.80
2023-03-04T06:52:23.168Z,17.52
2023-03-04T06:57:24.893Z,16.33
2023-03-04T07:02:26.515Z,17.02
2023-03-04T07:07:28.191Z,16.38
2023-03-04T07:12:29.992Z,18.63
2023-03-04T07:17:31.605Z,17.85
2023-03-04T07:22:33.224Z,18.40
2023-03-04T07:27:35.006Z,17.95
2023-03-04T07:32:36.783Z,17.48
2023-03-04T07:37:40.245Z,17.48
2023-03-04T07:42:41.951Z,17.42
2023-03-04T07:47:47.146Z,16.35
2023-03-04T07:52:51.001Z,16.27
2023-03-04T07:57:52.640Z,15.02
2023-03-04T08:02:54.283Z,16.13
2023-03-04T08:07:57.971Z,13.73
2023-03-04T08:12:59.904Z,13.90
2023-03-04T08:18:02.461Z,13.80
2023-03-04T08:23:04.284Z,14.13
2023-03-04T08:28:06.773Z,12.93
2023-03-04T08:33:09.664Z,14.20
2023-03-04T08:38:11.370Z,14.15
2023-03-04T08:43:13.138Z,14.25
2023-03-04T08:48:15.161Z,15.23
2023-03-04T08:53:21.602Z,14.18
2023-03-04T08:58:23.381Z,12.68
2023-03-04T09:03:25.090Z,13.73
2023-03-04T09:08:26.912Z,12.63
2023-03-04T09:13:30.872Z,13.48
2023-03-04T09:18:32.742Z,14.63
2023-03-04T09:23:42.355Z,13.15
2023-03-04T09:28:48.111Z,12.80
2023-03-04T09:33:52.492Z,12.68
2023-03-04T09:44:43.431Z,10.02
2023-03-04T09:49:56.760Z,10.20
2023-03-04T09:55:07.476Z,10.10
2023-03-04T10:00:13.597Z,9.95
2023-03-04T10:05:24.839Z,10.30
2023-03-04T10:10:40.477Z,10.90
2023-03-04T10:15:53.836Z,8.95
2023-03-04T10:21:07.586Z,8.00
2023-03-04T10:26:21.253Z,7.68
2023-03-04T10:31:36.678Z,7.85
2023-03-04T10:36:55.578Z,8.25
2023-03-04T10:42:07.017Z,7.35
2023-03-04T10:47:12.003Z,7.90
2023-03-04T10:52:41.312Z,6.22
2023-03-04T10:57:45.004Z,6.65
2023-03-04T11:02:51.823Z,7.90
2023-03-04T11:07:57.464Z,7.20
2023-03-04T11:13:12.316Z,6.32
2023-03-04T11:18:28.217Z,7.18
2023-03-04T11:23:51.675Z,5.97
2023-03-04T11:29:01.466Z,6.05
2023-03-04T11:34:14.333Z,6.75
2023-03-04T11:39:27.048Z,6.30
2023-03-04T11:44:30.646Z,5.55
2023-03-04T11:49:53.275Z,6.40
2023-03-04T11:55:00.719Z,6.18
2023-03-04T12:00:29.493Z,5.10
2023-03-04T12:05:46.360Z,5.53
2023-03-04T12:10:52.938Z,5.60
2023-03-04T12:16:06.674Z,5.05
2023-03-04T12:21:24.560Z,6.05
2023-03-04T12:26:26.248Z,5.05
2023-03-04T12:31:50.590Z,5.13
2023-03-04T12:37:12.101Z,5.15
2023-03-04T12:42:39.774Z,4.70
2023-03-04T12:47:55.181Z,4.10
2023-03-04T12:53:10.451Z,4.40
2023-03-04T12:58:19.476Z,5.53
2023-03-04T13:03:30.598Z,4.30
2023-03-04T13:08:41.502Z,4.60
2023-03-04T13:13:43.153Z,4.13
2023-03-04T13:18:45.103Z,3.30
2023-03-04T13:23:46.944Z,3.22
2023-03-04T13:29:16.079Z,3.90
2023-03-04T13:34:59.104Z,3.45
2023-03-04T13:40:27.418Z,3.38
2023-03-04T13:45:40.127Z,1.45
2023-03-04T13:50:48.438Z,2.33
2023-03-04T13:56:08.750Z,1.77
2023-03-04T14:01:31.637Z,2.78
2023-03-04T14:06:33.231Z,2.00
2023-03-04T14:11:42.305Z,1.98
2023-03-04T14:17:01.922Z,2.30
2023-03-04T14:22:03.674Z,2.47
2023-03-04T14:27:14.911Z,2.60
2023-03-04T14:32:19.769Z,2.58
2023-03-04T14:37:24.670Z,2.20
2023-03-04T14:42:36.850Z,3.22
2023-03-04T14:47:46.574Z,2.20
2023-03-04T14:52:53.315Z,2.85
2023-03-04T14:58:10.289Z,2.75
2023-03-04T15:03:30.207Z,1.77
2023-03-04T15:08:37.326Z,1.75
2023-03-04T15:19:24.573Z,2.08
2023-03-04T15:24:26.184Z,1.50
2023-03-04T15:29:29.252Z,1.95
2023-03-04T15:34:31.499Z,2.33
2023-03-04T15:39:33.492Z,1.40
2023-03-04T15:44:35.574Z,1.77
2023-03-04T15:49:37.448Z,2.33
2023-03-04T15:54:39.402Z,2.10
2023-03-04T15:59:41.702Z,2.38
2023-03-04T16:04:43.640Z,2.95
2023-03-04T16:09:47.028Z,2.97
2023-03-04T16:14:50.088Z,2.42
2023-03-04T16:19:52.029Z,2.53
2023-03-04T16:24:55.472Z,2.20
2023-03-04T16:29:57.584Z,2.25
2023-03-04T16:34:59.303Z,2.67
2023-03-04T16:40:01.329Z,3.40
2023-03-04T16:45:03.389Z,3.15
2023-03-04T16:50:05.373Z,2.15
2023-03-04T16:55:15.012Z,3.10
2023-03-04T17:00:19.142Z,2.78
2023-03-04T17:05:24.261Z,3.05
2023-03-04T17:10:26.798Z,3.05
2023-03-04T17:15:28.635Z,2.65
2023-03-04T17:20:30.554Z,2.90
2023-03-04T17:25:32.540Z,2.75
2023-03-04T17:30:34.709Z,2.97
2023-03-04T17:35:39.918Z,27.65
2023-03-04T17:40:42.415Z,6.80
2023-03-04T17:45:44.602Z,3.70
2023-03-04T17:50:51.139Z,10.65
2023-03-04T17:56:00.335Z,2.27
2023-03-04T18:01:17.784Z,4.50
2023-03-04T18:06:20.494Z,4.18
2023-03-04T18:11:24.797Z,2.65
2023-03-04T18:16:29.055Z,3.42
2023-03-04T18:21:31.523Z,13.30
2023-03-04T18:26:33.419Z,25.27
2023-03-04T18:31:37.219Z,2.63
2023-03-04T18:36:39.520Z,9.30
2023-03-04T18:41:41.709Z,50.67
2023-03-04T18:46:45.659Z,10.75
2023-03-04T18:51:47.836Z,13.02
2023-03-04T18:56:58.232Z,24.77
2023-03-04T19:02:06.497Z,4.80
2023-03-04T19:07:08.367Z,3.78
2023-03-04T19:12:10.777Z,2.67
2023-03-04T19:17:12.942Z,3.22
2023-03-04T19:22:14.966Z,2.13
2023-03-04T19:27:16.941Z,4.18
2023-03-04T19:32:19.332Z,3.85
2023-03-04T19:37:21.682Z,2.42
2023-03-04T19:42:24.208Z,3.03
2023-03-04T19:47:26.163Z,1.95
2023-03-04T19:52:27.965Z,2.72
2023-03-04T19:57:29.913Z,2.92
2023-03-04T20:02:31.616Z,2.95
2023-03-04T20:07:33.375Z,2.75
2023-03-04T20:12:36.290Z,2.63
2023-03-04T20:17:38.033Z,2.65
2023-03-04T20:22:39.882Z,3.10
2023-03-04T20:27:41.492Z,2.92
2023-03-04T20:32:43.189Z,2.13
2023-03-04T20:37:45.122Z,2.78
2023-03-04T20:42:47.106Z,3.00
2023-03-04T20:47:49.884Z,2.50
2023-03-04T20:52:52.315Z,2.75
2023-03-04T20:57:54.588Z,2.97
2023-03-04T21:02:56.715Z,2.90
2023-03-04T21:08:01.397Z,2.53
2023-03-04T21:13:03.144Z,2.35
2023-03-04T21:18:04.762Z,2.67
2023-03-04T21:23:06.432Z,3.58
2023-03-04T21:28:08.032Z,4.13
2023-03-04T21:33:19.328Z,4.25
2023-03-04T21:38:21.086Z,3.40
2023-03-04T21:43:23.778Z,2.40
2023-03-04T21:48:26.011Z,2.22
2023-03-04T21:53:28.779Z,2.72
2023-03-04T21:58:30.962Z,2.13
2023-03-04T22:03:32.604Z,2.35
2023-03-04T22:08:34.423Z,2.45
2023-03-04T22:13:37.301Z,2.63
2023-03-04T22:18:40.799Z,2.40
2023-03-04T22:23:42.973Z,2.92
2023-03-04T22:28:45.379Z,2.22
2023-03-04T22:33:47.767Z,3.17
2023-03-04T22:38:49.477Z,3.40
2023-03-04T22:43:51.229Z,2.40
2023-03-04T22:48:55.664Z,2.30
2023-03-04T22:53:57.924Z,2.42
2023-03-04T22:58:59.540Z,3.30
2023-03-04T23:04:01.415Z,2.72
2023-03-04T23:09:04.056Z,2.20
2023-03-04T23:14:07.902Z,2.75
2023-03-04T23:19:17.433Z,2.40
2023-03-04T23:24:20.152Z,2.63
2023-03-04T23:29:21.887Z,2.47
2023-03-04T23:34:23.727Z,1.67
2023-03-04T23:39:25.403Z,2.35
2023-03-04T23:44:27.233Z,2.10
2023-03-04T23:49:28.897Z,2.78
2023-03-04T23:54:31.340Z,2.60
2023-03-04T23:59:33.074Z,2.80
